Time;durP1;ratioP1;P1;durP2;ratioP2;P2;SDS_P1;SDS_P2;PMS_P1;PMS_P2;Temp;Humidity;BMP_temperature;BMP_pressure;BME280_temperature;BME280_humidity;BME280_pressure;Samples;Min_cycle;Max_cycle;Signal;HPM_P1;HPM_P2
2022/04/07 00:01:41;;;;;;;9.40;3.10;;;10.30;99.90;;;;;;5106672;27;20210;-62
2022/04/07 00:04:11;;;;;;;9.57;2.80;;;10.20;99.90;;;;;;5108353;27;20669;-62
2022/04/07 00:06:39;;;;;;;9.90;2.80;;;10.30;99.90;;;;;;5103178;28;20203;-62
2022/04/07 00:09:08;;;;;;;5.37;3.10;;;10.30;99.90;;;;;;5106288;28;20206;-61
2022/04/07 00:11:36;;;;;;;8.13;3.10;;;10.20;99.90;;;;;;5102385;28;20207;-61
2022/04/07 00:14:05;;;;;;;10.20;2.67;;;10.10;99.90;;;;;;5104370;28;20201;-61
2022/04/07 00:16:33;;;;;;;4.40;2.30;;;10.10;99.90;;;;;;5103771;28;20205;-62
2022/04/07 00:19:05;;;;;;;9.60;2.67;;;10.00;99.90;;;;;;5108943;27;20191;-61
2022/04/07 00:21:38;;;;;;;6.23;3.13;;;10.10;99.90;;;;;;5099509;28;20287;-62
2022/04/07 00:24:08;;;;;;;8.97;2.90;;;10.00;99.90;;;;;;5106356;28;20206;-61
2022/04/07 00:26:36;;;;;;;8.57;2.67;;;10.10;99.90;;;;;;5107239;27;20207;-62
2022/04/07 00:29:04;;;;;;;5.33;2.43;;;10.10;99.90;;;;;;5109361;27;20313;-62
2022/04/07 00:31:39;;;;;;;5.60;2.83;;;10.10;99.90;;;;;;5106941;28;20195;-61
2022/04/07 00:34:12;;;;;;;4.40;2.50;;;10.10;99.90;;;;;;5107274;27;20365;-61
2022/04/07 00:36:40;;;;;;;7.20;2.90;;;10.10;99.90;;;;;;5088258;28;20208;-61
2022/04/07 00:39:09;;;;;;;5.67;2.37;;;10.20;99.90;;;;;;5106787;28;20309;-61
2022/04/07 00:41:39;;;;;;;11.70;2.60;;;10.20;99.90;;;;;;5106462;28;21786;-62
2022/04/07 00:44:08;;;;;;;10.30;3.00;;;10.10;99.90;;;;;;5110371;27;20195;-62
2022/04/07 00:46:38;;;;;;;11.03;2.87;;;10.20;99.90;;;;;;5107230;28;20194;-62
2022/04/07 00:49:07;;;;;;;10.47;2.60;;;10.20;99.90;;;;;;5104464;28;20233;-62
2022/04/07 00:51:40;;;;;;;9.23;2.80;;;10.20;99.90;;;;;;5105622;28;20191;-62
2022/04/07 00:54:10;;;;;;;9.90;2.40;;;10.20;99.90;;;;;;5106229;28;20195;-62
2022/04/07 00:56:41;;;;;;;13.17;2.60;;;10.30;99.90;;;;;;5107225;27;20196;-62
2022/04/07 00:59:11;;;;;;;11.53;3.00;;;10.20;99.90;;;;;;5110447;27;20202;-62
2022/04/07 01:01:40;;;;;;;10.73;2.77;;;10.30;99.90;;;;;;5102729;28;20197;-62
2022/04/07 01:04:08;;;;;;;4.30;2.07;;;10.30;99.90;;;;;;5106537;28;20276;-62
2022/04/07 01:06:41;;;;;;;8.50;3.03;;;10.30;99.90;;;;;;5105270;27;20211;-62
2022/04/07 01:09:10;;;;;;;9.57;2.50;;;10.30;99.90;;;;;;5101556;28;20218;-62
2022/04/07 01:11:39;;;;;;;8.27;2.50;;;10.30;99.90;;;;;;5108571;27;20194;-62
2022/04/07 01:14:07;;;;;;;8.30;3.27;;;10.30;99.90;;;;;;5103091;28;20199;-62
2022/04/07 01:16:36;;;;;;;13.87;2.60;;;10.30;99.90;;;;;;5107278;27;20187;-67
2022/04/07 01:19:05;;;;;;;8.47;3.53;;;10.30;99.90;;;;;;5102153;28;20226;-62
2022/04/07 01:21:36;;;;;;;12.30;2.70;;;10.30;99.90;;;;;;5089304;28;20187;-62
2022/04/07 01:24:08;;;;;;;5.20;2.70;;;10.30;99.90;;;;;;5106503;27;20281;-62
2022/04/07 01:26:38;;;;;;;6.40;2.80;;;10.30;99.90;;;;;;5103092;28;20205;-62
2022/04/07 01:29:09;;;;;;;10.03;2.73;;;10.30;99.90;;;;;;5104960;28;20239;-62
2022/04/07 01:31:38;;;;;;;6.20;2.70;;;10.30;99.90;;;;;;5106518;28;20649;-62
2022/04/07 01:34:11;;;;;;;10.77;3.07;;;10.30;99.90;;;;;;5109422;27;20252;-62
2022/04/07 01:36:41;;;;;;;12.33;3.80;;;10.30;99.90;;;;;;5103584;27;20193;-62
2022/04/07 01:39:11;;;;;;;8.63;3.13;;;10.30;99.90;;;;;;5101301;27;20265;-62
2022/04/07 01:41:43;;;;;;;6.97;2.90;;;10.20;99.90;;;;;;5100930;27;20183;-63
2022/04/07 01:44:16;;;;;;;9.83;3.20;;;10.30;99.90;;;;;;5101342;28;20195;-62
2022/04/07 01:46:46;;;;;;;8.37;2.80;;;10.30;99.90;;;;;;5105385;27;20209;-62
2022/04/07 01:49:14;;;;;;;8.00;2.90;;;10.30;99.90;;;;;;5099788;27;20234;-62
2022/04/07 01:51:44;;;;;;;3.50;2.70;;;10.30;99.90;;;;;;5103002;28;20279;-62
2022/04/07 01:54:15;;;;;;;12.40;3.27;;;10.30;99.90;;;;;;5106653;27;20203;-62
2022/04/07 01:56:46;;;;;;;6.33;2.90;;;10.30;99.90;;;;;;5105220;28;20183;-62
2022/04/07 01:59:15;;;;;;;8.47;3.00;;;10.30;99.90;;;;;;5103749;28;20195;-62
2022/04/07 02:01:44;;;;;;;13.77;3.17;;;10.40;99.90;;;;;;5101760;28;20210;-62
2022/04/07 02:04:13;;;;;;;10.33;3.27;;;10.40;99.90;;;;;;5106423;28;20195;-61
2022/04/07 02:06:42;;;;;;;9.83;3.07;;;10.30;99.90;;;;;;5104804;28;20234;-61
2022/04/07 02:09:10;;;;;;;7.43;3.00;;;10.30;99.90;;;;;;5105045;28;20217;-61
2022/04/07 02:11:40;;;;;;;9.13;2.70;;;10.30;99.90;;;;;;5103186;28;20194;-61
2022/04/07 02:14:10;;;;;;;12.87;2.97;;;10.40;99.90;;;;;;5098522;28;20218;-62
2022/04/07 02:16:38;;;;;;;14.03;2.83;;;10.30;99.90;;;;;;5104089;28;20191;-61
2022/04/07 02:19:08;;;;;;;10.50;2.63;;;10.40;99.90;;;;;;5114032;27;20199;-62
2022/04/07 02:21:36;;;;;;;11.90;2.87;;;10.40;99.90;;;;;;5106350;28;20209;-62
2022/04/07 02:24:06;;;;;;;10.43;2.80;;;10.40;99.90;;;;;;5110348;27;20219;-62
2022/04/07 02:26:34;;;;;;;9.70;2.97;;;10.40;99.90;;;;;;5105225;27;20203;-62
2022/04/07 02:29:03;;;;;;;13.10;2.90;;;10.40;99.90;;;;;;5105882;28;20235;-62
2022/04/07 02:31:32;;;;;;;8.47;2.70;;;10.40;99.90;;;;;;5109866;28;20206;-62
2022/04/07 02:34:01;;;;;;;9.17;2.80;;;10.40;99.90;;;;;;5091472;28;20207;-62
2022/04/07 02:36:29;;;;;;;8.50;2.87;;;10.30;99.90;;;;;;5104570;28;20316;-62
2022/04/07 02:38:58;;;;;;;8.57;2.73;;;10.30;99.90;;;;;;5100022;28;20274;-62
2022/04/07 02:41:32;;;;;;;6.70;2.57;;;10.30;99.90;;;;;;5104110;28;20196;-62
2022/04/07 02:44:02;;;;;;;8.50;2.80;;;10.40;99.90;;;;;;5105570;28;20199;-62
2022/04/07 02:46:32;;;;;;;8.70;3.10;;;10.30;99.90;;;;;;5088179;28;20625;-62
2022/04/07 02:49:00;;;;;;;9.77;3.03;;;10.30;99.90;;;;;;5108430;28;20284;-62
2022/04/07 02:51:31;;;;;;;6.03;2.90;;;10.20;99.90;;;;;;5105443;27;20241;-62
2022/04/07 02:53:59;;;;;;;8.67;3.27;;;10.20;99.90;;;;;;5109220;27;20201;-62
2022/04/07 02:56:29;;;;;;;6.63;2.97;;;10.20;99.90;;;;;;5105295;27;20206;-62
2022/04/07 02:58:58;;;;;;;6.20;3.07;;;10.20;99.90;;;;;;5108664;28;20223;-62
2022/04/07 03:01:30;;;;;;;5.50;3.10;;;10.20;99.90;;;;;;5104215;27;20187;-62
2022/04/07 03:04:00;;;;;;;5.57;3.13;;;10.20;99.90;;;;;;5103672;27;20196;-62
2022/04/07 03:06:29;;;;;;;4.17;3.00;;;10.20;99.90;;;;;;5107080;27;20209;-62
2022/04/07 03:08:58;;;;;;;5.30;2.73;;;10.20;99.90;;;;;;5106318;28;20209;-62
2022/04/07 03:11:26;;;;;;;5.87;3.10;;;10.20;99.90;;;;;;5106489;27;20277;-62
2022/04/07 03:13:55;;;;;;;4.30;2.93;;;10.20;99.90;;;;;;5107068;27;20195;-62
2022/04/07 03:16:23;;;;;;;3.73;2.70;;;10.20;99.90;;;;;;5107720;27;20230;-62
2022/04/07 03:18:51;;;;;;;2.80;2.50;;;10.20;99.90;;;;;;5099803;27;20187;-62
2022/04/07 03:21:20;;;;;;;7.57;2.90;;;10.20;99.90;;;;;;5113933;27;20209;-62
2022/04/07 03:23:49;;;;;;;5.20;2.53;;;10.20;99.90;;;;;;5104995;28;20193;-61
2022/04/07 03:26:17;;;;;;;2.90;2.40;;;10.20;99.90;;;;;;5102391;27;20665;-62
2022/04/07 03:28:45;;;;;;;4.67;2.53;;;10.20;99.90;;;;;;5102455;27;20233;-62
2022/04/07 03:31:14;;;;;;;4.80;2.50;;;10.20;99.90;;;;;;5112018;27;20210;-62
2022/04/07 03:33:44;;;;;;;3.43;2.47;;;10.20;99.90;;;;;;5104815;27;20205;-62
2022/04/07 03:36:13;;;;;;;4.60;2.30;;;10.20;99.90;;;;;;5109921;27;20255;-62
2022/04/07 03:38:43;;;;;;;3.97;2.80;;;10.20;99.90;;;;;;5104848;27;20195;-62
2022/04/07 03:41:11;;;;;;;3.07;2.90;;;10.20;99.90;;;;;;5121560;27;20182;-62
2022/04/07 03:43:39;;;;;;;3.50;3.20;;;10.20;99.90;;;;;;5109163;27;20187;-61
2022/04/07 03:46:08;;;;;;;3.93;3.37;;;10.20;99.90;;;;;;5108012;28;20199;-62
2022/04/07 03:48:37;;;;;;;4.13;3.73;;;10.10;99.90;;;;;;5109059;27;20561;-62
2022/04/07 03:51:05;;;;;;;4.23;3.93;;;10.10;99.90;;;;;;5100333;27;20302;-62
2022/04/07 03:53:33;;;;;;;5.40;4.80;;;10.10;99.90;;;;;;5102696;28;20195;-62
2022/04/07 03:56:03;;;;;;;5.70;4.43;;;10.10;99.90;;;;;;5107418;27;20199;-62
2022/04/07 03:58:32;;;;;;;6.17;4.07;;;10.00;99.90;;;;;;5103171;27;20575;-62
2022/04/07 04:01:00;;;;;;;5.33;3.60;;;10.00;99.90;;;;;;5106627;27;20806;-63
2022/04/07 04:04:06;;;;;;;3.17;2.70;;;10.00;99.90;;;;;;5101668;27;20810;-62
2022/04/07 04:07:12;;;;;;;4.23;2.33;;;10.00;99.90;;;;;;5105088;28;20229;-62
2022/04/07 04:09:40;;;;;;;2.50;2.30;;;10.00;99.90;;;;;;5107599;28;20858;-62
2022/04/07 04:12:11;;;;;;;2.50;2.20;;;10.00;99.90;;;;;;5104665;27;20196;-62
2022/04/07 04:14:40;;;;;;;3.67;2.33;;;9.90;99.90;;;;;;5100976;27;20221;-63
2022/04/07 04:17:09;;;;;;;6.33;2.63;;;9.90;99.90;;;;;;5113258;27;20195;-62
2022/04/07 04:19:37;;;;;;;4.60;2.40;;;9.80;99.90;;;;;;5107657;27;20191;-62
2022/04/07 04:22:05;;;;;;;4.37;2.80;;;9.80;99.90;;;;;;5103464;27;20195;-62
2022/04/07 04:24:33;;;;;;;4.60;2.53;;;9.70;99.90;;;;;;5108596;27;20222;-62
2022/04/07 04:27:01;;;;;;;5.83;2.97;;;9.70;99.90;;;;;;5105568;28;20254;-62
2022/04/07 04:29:31;;;;;;;7.30;3.20;;;9.70;99.90;;;;;;5107242;28;20754;-63
2022/04/07 04:31:59;;;;;;;7.73;2.80;;;9.70;99.90;;;;;;5104132;27;20187;-63
2022/04/07 04:34:28;;;;;;;6.20;3.20;;;9.70;99.90;;;;;;5094864;27;20200;-62
2022/04/07 04:36:56;;;;;;;6.80;3.10;;;9.70;99.90;;;;;;5105885;27;20282;-62
2022/04/07 04:39:25;;;;;;;5.77;3.17;;;9.70;99.90;;;;;;5108531;27;20200;-62
2022/04/07 04:41:53;;;;;;;4.10;2.90;;;9.70;99.90;;;;;;5102996;28;20183;-62
2022/04/07 04:44:21;;;;;;;6.53;2.80;;;9.70;99.90;;;;;;5101311;28;20772;-62
2022/04/07 04:46:54;;;;;;;7.73;3.40;;;9.70;99.90;;;;;;5102736;28;20202;-63
2022/04/07 04:49:23;;;;;;;5.47;2.73;;;9.70;99.90;;;;;;5105689;27;20218;-62
2022/04/07 04:51:51;;;;;;;4.67;2.87;;;9.70;99.90;;;;;;5110497;27;20218;-62
2022/04/07 04:54:19;;;;;;;8.13;2.60;;;9.70;99.90;;;;;;5102999;27;20203;-62
2022/04/07 04:56:51;;;;;;;7.37;2.77;;;9.80;99.90;;;;;;5107166;28;20278;-64
2022/04/07 04:59:20;;;;;;;7.33;2.80;;;9.70;99.90;;;;;;5098350;28;20202;-62
2022/04/07 05:01:48;;;;;;;7.07;2.67;;;9.80;99.90;;;;;;5101571;28;20243;-62
2022/04/07 05:04:18;;;;;;;2.93;2.43;;;9.80;99.90;;;;;;5128815;27;20610;-62
2022/04/07 05:06:46;;;;;;;5.60;2.60;;;9.80;99.90;;;;;;5104899;28;20217;-62
2022/04/07 05:09:15;;;;;;;8.50;2.40;;;9.80;99.90;;;;;;5109132;27;20209;-62
2022/04/07 05:11:43;;;;;;;7.67;2.70;;;9.90;99.90;;;;;;5106854;27;20319;-61
2022/04/07 05:14:12;;;;;;;5.90;2.40;;;9.90;99.90;;;;;;5106521;27;20201;-62
2022/04/07 05:16:40;;;;;;;4.23;2.50;;;9.90;99.90;;;;;;5102125;27;20222;-61
2022/04/07 05:19:08;;;;;;;4.27;2.10;;;9.80;99.90;;;;;;5109417;27;20267;-61
2022/04/07 05:21:38;;;;;;;6.40;2.57;;;9.90;99.90;;;;;;5111459;27;20572;-62
2022/04/07 05:24:07;;;;;;;11.77;2.30;;;10.00;99.90;;;;;;5110994;27;20190;-62
2022/04/07 05:26:35;;;;;;;6.63;2.20;;;9.90;99.90;;;;;;5103631;28;20934;-62
2022/04/07 05:29:04;;;;;;;7.07;2.80;;;9.90;99.90;;;;;;5107730;27;20296;-58
2022/04/07 05:31:32;;;;;;;8.07;2.63;;;10.00;99.90;;;;;;5102631;27;20264;-61
2022/04/07 05:34:01;;;;;;;7.30;2.03;;;10.00;99.90;;;;;;5103517;27;20264;-61
2022/04/07 05:36:29;;;;;;;7.50;2.43;;;10.00;99.90;;;;;;5102315;27;20661;-62
2022/04/07 05:38:59;;;;;;;2.57;2.03;;;10.00;99.90;;;;;;5104520;28;20197;-62
2022/04/07 05:41:27;;;;;;;8.60;2.10;;;9.90;99.90;;;;;;5107421;27;20295;-62
2022/04/07 05:43:55;;;;;;;6.37;2.20;;;9.80;99.90;;;;;;5103056;27;20662;-61
2022/04/07 05:46:24;;;;;;;6.63;2.40;;;9.70;99.90;;;;;;5101260;28;20203;-61
2022/04/07 05:48:52;;;;;;;7.50;2.60;;;9.70;99.90;;;;;;5107171;27;20810;-61
2022/04/07 05:51:20;;;;;;;6.53;2.40;;;9.60;99.90;;;;;;5101042;27;20211;-62
2022/04/07 05:53:48;;;;;;;4.70;2.60;;;9.50;99.90;;;;;;5105057;28;20281;-62
2022/04/07 05:56:18;;;;;;;7.93;2.60;;;9.50;99.90;;;;;;5099673;28;20845;-61
2022/04/07 05:58:46;;;;;;;5.90;2.80;;;9.40;99.90;;;;;;5098940;28;20191;-62
2022/04/07 06:01:15;;;;;;;4.67;2.50;;;9.40;99.90;;;;;;5097615;28;20278;-62
2022/04/07 06:03:43;;;;;;;9.27;3.53;;;9.50;99.90;;;;;;5104653;28;20191;-62
2022/04/07 06:06:11;;;;;;;7.00;2.83;;;9.50;99.90;;;;;;5103682;28;20233;-62
2022/04/07 06:08:40;;;;;;;5.33;2.53;;;9.50;99.90;;;;;;5103518;28;20191;-62
2022/04/07 06:11:08;;;;;;;5.47;2.83;;;9.50;99.90;;;;;;5106549;27;20217;-62
2022/04/07 06:13:38;;;;;;;8.80;2.53;;;9.60;99.90;;;;;;5099621;27;20287;-62
2022/04/07 06:16:06;;;;;;;5.27;2.77;;;9.60;99.90;;;;;;5106511;28;20281;-62
2022/04/07 06:18:35;;;;;;;10.97;2.97;;;9.60;99.90;;;;;;5105424;28;20209;-61
2022/04/07 06:21:03;;;;;;;4.13;2.63;;;9.70;99.90;;;;;;5103935;28;20373;-61
2022/04/07 06:23:32;;;;;;;6.00;2.93;;;9.80;99.90;;;;;;5101937;27;20647;-61
2022/04/07 06:26:01;;;;;;;4.17;2.73;;;9.80;99.90;;;;;;5094503;28;20658;-62
2022/04/07 06:28:29;;;;;;;9.80;3.70;;;9.80;99.90;;;;;;5103372;28;20230;-61
2022/04/07 06:30:59;;;;;;;3.07;2.80;;;9.90;99.90;;;;;;5098808;28;20237;-61
2022/04/07 06:33:27;;;;;;;4.73;2.50;;;9.90;99.90;;;;;;5106235;28;20220;-61
2022/04/07 06:35:55;;;;;;;5.37;2.83;;;9.80;99.90;;;;;;5099952;28;20673;-62
2022/04/07 06:38:23;;;;;;;7.00;2.93;;;9.90;99.90;;;;;;5105384;28;20730;-61
2022/04/07 06:40:52;;;;;;;5.90;2.67;;;9.80;99.90;;;;;;5100863;28;20273;-62
2022/04/07 06:43:22;;;;;;;3.87;2.97;;;9.90;99.90;;;;;;5103852;28;21339;-61
2022/04/07 06:45:50;;;;;;;5.20;2.80;;;9.90;99.90;;;;;;5102429;28;20238;-61
2022/04/07 06:48:20;;;;;;;6.70;3.23;;;9.90;99.90;;;;;;5103027;28;20202;-61
2022/04/07 06:50:48;;;;;;;3.97;2.70;;;10.00;99.90;;;;;;5105636;27;20197;-60
2022/04/07 06:53:17;;;;;;;7.33;3.03;;;10.00;99.90;;;;;;5100970;28;20267;-61
2022/04/07 06:55:45;;;;;;;3.50;2.57;;;10.00;99.90;;;;;;5102053;28;20255;-61
2022/04/07 06:58:13;;;;;;;5.57;2.87;;;10.10;99.90;;;;;;5102713;28;20205;-61
2022/04/07 07:00:44;;;;;;;5.47;2.73;;;10.10;99.90;;;;;;5101759;28;20274;-62
2022/04/07 07:03:15;;;;;;;4.03;2.83;;;10.10;99.90;;;;;;5102445;28;20205;-60
2022/04/07 07:05:45;;;;;;;4.57;2.57;;;10.20;99.90;;;;;;5104539;28;20211;-61
2022/04/07 07:08:17;;;;;;;5.03;2.40;;;10.20;99.90;;;;;;5106299;28;20214;-61
2022/04/07 07:10:46;;;;;;;4.13;2.40;;;10.20;99.90;;;;;;5107811;28;20205;-62
2022/04/07 07:13:16;;;;;;;3.10;2.53;;;10.20;99.90;;;;;;5103201;28;20337;-61
2022/04/07 07:15:52;;;;;;;3.10;2.70;;;10.20;99.90;;;;;;5107519;28;20205;-61
2022/04/07 07:18:21;;;;;;;3.53;2.60;;;10.30;99.90;;;;;;5103876;28;20256;-61
2022/04/07 07:20:51;;;;;;;2.80;2.47;;;10.20;99.90;;;;;;5105941;28;20290;-61
2022/04/07 07:23:19;;;;;;;2.63;2.43;;;10.20;99.90;;;;;;5098862;27;20282;-61
2022/04/07 07:25:48;;;;;;;4.40;2.63;;;10.20;99.90;;;;;;5105073;28;20205;-62
2022/04/07 07:28:16;;;;;;;3.33;2.87;;;10.20;99.90;;;;;;5101977;28;20235;-62
2022/04/07 07:30:45;;;;;;;4.43;3.40;;;10.20;99.90;;;;;;5106917;28;20194;-62
2022/04/07 07:33:13;;;;;;;3.87;3.57;;;10.20;99.90;;;;;;5104320;27;20211;-62
2022/04/07 07:35:43;;;;;;;4.37;3.97;;;10.20;99.90;;;;;;5099708;28;20199;-62
2022/04/07 07:38:13;;;;;;;5.77;4.53;;;10.20;99.90;;;;;;5108793;27;20219;-62
2022/04/07 07:40:41;;;;;;;5.53;3.87;;;10.20;99.90;;;;;;5115951;27;20190;-62
2022/04/07 07:43:10;;;;;;;6.70;3.50;;;10.20;99.90;;;;;;5118220;27;20186;-65
2022/04/07 07:45:38;;;;;;;3.30;2.77;;;10.20;99.90;;;;;;5111277;28;20277;-63
2022/04/07 07:48:29;;;;;;;4.63;2.43;;;10.10;99.90;;;;;;5109710;27;20650;-63
2022/04/07 07:50:58;;;;;;;2.17;2.07;;;10.20;99.90;;;;;;5111548;27;20730;-63
2022/04/07 07:53:28;;;;;;;4.13;2.00;;;10.30;99.90;;;;;;5112198;27;20210;-63
2022/04/07 07:55:56;;;;;;;2.00;1.90;;;10.40;99.90;;;;;;5097170;28;20205;-62
2022/04/07 07:58:25;;;;;;;1.60;1.60;;;10.40;99.90;;;;;;5111823;28;20205;-62
2022/04/07 08:00:54;;;;;;;1.60;1.47;;;10.40;99.90;;;;;;5106403;27;20203;-62
2022/04/07 08:03:23;;;;;;;1.60;1.40;;;10.40;99.90;;;;;;5110889;27;20609;-62
2022/04/07 08:05:51;;;;;;;1.30;1.30;;;10.30;99.90;;;;;;5106909;27;20322;-62
2022/04/07 08:08:20;;;;;;;2.40;1.50;;;10.20;99.90;;;;;;5112392;27;20199;-62
2022/04/07 08:10:49;;;;;;;2.00;1.50;;;10.20;99.90;;;;;;5111002;28;20614;-62
2022/04/07 08:13:17;;;;;;;1.60;1.50;;;10.20;99.90;;;;;;5112494;27;20301;-62
2022/04/07 08:15:46;;;;;;;4.70;1.50;;;10.20;99.90;;;;;;5099535;28;20199;-61
2022/04/07 08:18:15;;;;;;;2.53;1.40;;;10.30;99.90;;;;;;5105037;28;20211;-61
2022/04/07 08:20:43;;;;;;;1.43;1.33;;;10.20;99.90;;;;;;5110167;27;20199;-61
2022/04/07 08:23:12;;;;;;;2.37;1.30;;;10.10;99.90;;;;;;5095818;28;20191;-62
2022/04/07 08:25:42;;;;;;;1.90;1.20;;;10.20;99.90;;;;;;5104152;28;20190;-62
2022/04/07 08:28:12;;;;;;;1.83;1.27;;;10.10;99.90;;;;;;5103086;27;20720;-62
2022/04/07 08:30:41;;;;;;;1.23;1.10;;;10.20;99.90;;;;;;5101734;27;20202;-63
2022/04/07 08:33:09;;;;;;;3.17;1.20;;;10.60;99.90;;;;;;5105450;27;20239;-62
2022/04/07 08:35:37;;;;;;;0.80;0.80;;;11.10;99.90;;;;;;5115140;27;20211;-62
2022/04/07 08:38:05;;;;;;;0.80;0.80;;;11.20;99.90;;;;;;5112201;27;20676;-61
2022/04/07 08:40:37;;;;;;;2.17;1.30;;;11.20;99.90;;;;;;5106539;28;20195;-62
2022/04/07 08:43:07;;;;;;;1.50;1.13;;;11.30;99.90;;;;;;5113010;27;20218;-61
2022/04/07 08:45:37;;;;;;;2.57;1.50;;;11.40;99.90;;;;;;5113105;27;20210;-62
2022/04/07 08:48:09;;;;;;;2.13;1.60;;;11.60;99.90;;;;;;5110513;27;20252;-62
2022/04/07 08:50:40;;;;;;;2.87;1.10;;;11.70;99.90;;;;;;5109713;27;20195;-62
2022/04/07 08:53:10;;;;;;;3.60;1.00;;;11.60;99.90;;;;;;5107694;28;20217;-61
2022/04/07 08:55:39;;;;;;;1.90;1.20;;;11.60;99.90;;;;;;5122493;27;20645;-62
2022/04/07 08:58:10;;;;;;;3.57;1.67;;;11.80;99.90;;;;;;5109915;27;20190;-61
2022/04/07 09:00:40;;;;;;;1.27;1.17;;;11.70;99.90;;;;;;5112576;27;20569;-62
2022/04/07 09:03:08;;;;;;;2.23;1.57;;;11.90;99.90;;;;;;5108172;27;20321;-61
2022/04/07 09:05:53;;;;;;;2.37;1.10;;;12.20;99.90;;;;;;5108722;27;20557;-62
2022/04/07 09:08:22;;;;;;;1.20;1.10;;;12.70;99.90;;;;;;5097275;27;20191;-61
2022/04/07 09:10:55;;;;;;;1.23;1.13;;;13.20;99.90;;;;;;5106677;27;20705;-62
2022/04/07 09:13:23;;;;;;;3.50;1.20;;;13.30;99.90;;;;;;5107834;27;20227;-62
2022/04/07 09:15:53;;;;;;;2.00;1.20;;;13.60;99.90;;;;;;5105794;27;20270;-62
2022/04/07 09:18:25;;;;;;;3.07;1.37;;;13.80;99.90;;;;;;5109517;27;20252;-62
2022/04/07 09:20:54;;;;;;;3.00;1.20;;;13.70;99.90;;;;;;5109429;28;20564;-62
2022/04/07 09:23:22;;;;;;;2.03;1.30;;;14.00;99.90;;;;;;5112029;27;20182;-62
2022/04/07 09:25:51;;;;;;;4.13;1.37;;;14.90;99.90;;;;;;5112681;27;20197;-62
2022/04/07 09:28:27;;;;;;;2.07;1.30;;;15.80;99.90;;;;;;5109112;28;20236;-62
2022/04/07 09:30:58;;;;;;;2.80;1.20;;;16.50;99.90;;;;;;5110075;28;20190;-62
2022/04/07 09:33:29;;;;;;;3.37;1.23;;;16.80;99.90;;;;;;5104249;28;20216;-62
2022/04/07 09:36:05;;;;;;;3.70;1.30;;;17.00;99.90;;;;;;5098630;27;20281;-61
2022/04/07 09:38:35;;;;;;;2.13;1.30;;;17.20;99.90;;;;;;5099385;27;20251;-62
2022/04/07 09:41:05;;;;;;;4.10;1.50;;;17.60;99.90;;;;;;5105798;27;20273;-61
2022/04/07 09:43:43;;;;;;;3.10;1.30;;;18.00;99.90;;;;;;5105797;27;20681;-61
2022/04/07 09:46:14;;;;;;;3.20;1.47;;;18.20;99.90;;;;;;5106966;27;20283;-63
2022/04/07 09:49:00;;;;;;;3.83;1.50;;;18.30;99.90;;;;;;5120880;27;20202;-63
2022/04/07 09:51:29;;;;;;;3.73;1.40;;;18.40;99.90;;;;;;5115910;27;20194;-63
2022/04/07 09:53:59;;;;;;;2.57;1.53;;;18.30;99.90;;;;;;5112754;27;20241;-63
2022/04/07 09:56:29;;;;;;;4.10;1.47;;;18.70;99.90;;;;;;5115035;27;20234;-63
2022/04/07 09:58:57;;;;;;;3.33;1.50;;;19.40;99.90;;;;;;5110575;27;20244;-63
2022/04/07 10:01:33;;;;;;;3.00;1.40;;;19.80;99.90;;;;;;5108128;27;20618;-62
2022/04/07 10:04:41;;;;;;;3.23;1.77;;;19.50;99.90;;;;;;5108897;27;20190;-62
2022/04/07 10:07:47;;;;;;;6.63;1.50;;;19.30;99.90;;;;;;5105221;28;20419;-63
2022/04/07 10:10:17;;;;;;;4.57;1.80;;;19.30;99.90;;;;;;5103203;28;20191;-63
2022/04/07 10:12:47;;;;;;;3.43;1.57;;;19.30;99.90;;;;;;5101154;27;20535;-62
2022/04/07 10:15:16;;;;;;;3.37;1.80;;;19.80;99.90;;;;;;5107239;28;20215;-59
2022/04/07 10:17:47;;;;;;;5.73;1.70;;;20.00;99.90;;;;;;5106314;28;20191;-62
2022/04/07 10:20:18;;;;;;;4.37;1.43;;;19.50;99.90;;;;;;5105229;28;20506;-62
2022/04/07 10:22:56;;;;;;;3.17;1.60;;;19.20;99.90;;;;;;5105946;28;20616;-62
2022/04/07 10:25:26;;;;;;;7.20;1.87;;;19.10;99.90;;;;;;5102159;28;20251;-62
2022/04/07 10:27:58;;;;;;;5.47;2.00;;;19.10;99.90;;;;;;5105257;28;20227;-62
2022/04/07 10:30:30;;;;;;;5.90;1.90;;;19.10;99.90;;;;;;5108239;27;20628;-62
2022/04/07 10:33:01;;;;;;;5.37;1.60;;;19.40;99.90;;;;;;5107222;28;20303;-62
2022/04/07 10:35:36;;;;;;;7.10;1.60;;;19.70;99.90;;;;;;5107488;28;20986;-63
2022/04/07 10:38:07;;;;;;;4.87;1.53;;;20.00;99.90;;;;;;5100274;28;20202;-62
2022/04/07 10:40:39;;;;;;;7.00;1.87;;;19.80;99.90;;;;;;5107500;28;20678;-61
2022/04/07 10:43:10;;;;;;;3.37;1.50;;;19.40;99.90;;;;;;5106225;28;20696;-61
2022/04/07 10:45:40;;;;;;;5.43;1.63;;;19.10;99.90;;;;;;5107087;27;20195;-62
2022/04/07 10:48:28;;;;;;;3.00;1.70;;;19.30;99.90;;;;;;5114105;28;20204;-62
2022/04/07 10:50:59;;;;;;;5.40;2.00;;;19.80;99.90;;;;;;5100933;28;20646;-62
2022/04/07 10:53:30;;;;;;;4.30;2.30;;;19.00;99.90;;;;;;5107910;28;20301;-62
2022/04/07 10:56:08;;;;;;;3.10;1.80;;;18.60;99.90;;;;;;5105963;28;20191;-63
2022/04/07 10:58:47;;;;;;;5.93;2.13;;;18.40;99.90;;;;;;5104256;28;20203;-62
2022/04/07 11:01:59;;;;;;;4.77;2.10;;;18.10;99.90;;;;;;5106253;28;20190;-62
2022/04/07 11:04:44;;;;;;;6.03;1.80;;;17.70;99.90;;;;;;5096441;28;20218;-61
2022/04/07 11:07:18;;;;;;;4.73;1.97;;;17.40;99.90;;;;;;5118391;28;20640;-62
2022/04/07 11:09:52;;;;;;;5.17;1.70;;;17.40;99.90;;;;;;5122844;27;20195;-63
2022/04/07 11:12:24;;;;;;;5.10;2.30;;;17.80;99.90;;;;;;5102473;28;20234;-62
2022/04/07 11:14:55;;;;;;;5.27;2.17;;;17.70;99.90;;;;;;5116682;27;20194;-63
2022/04/07 11:17:30;;;;;;;6.43;2.10;;;17.70;99.90;;;;;;5090699;28;20218;-62
2022/04/07 11:20:13;;;;;;;10.53;2.30;;;17.20;99.90;;;;;;5101420;27;20242;-61
2022/04/07 11:22:53;;;;;;;7.40;2.30;;;17.00;99.90;;;;;;5117720;27;20232;-62
2022/04/07 11:25:24;;;;;;;5.13;2.10;;;16.70;99.90;;;;;;5108370;27;20182;-61
2022/04/07 11:28:09;;;;;;;7.60;2.23;;;17.30;99.90;;;;;;5108890;28;20313;-62
2022/04/07 11:30:42;;;;;;;10.83;2.30;;;18.10;99.90;;;;;;5122017;27;20194;-62
2022/04/07 11:33:38;;;;;;;9.50;2.73;;;18.20;99.90;;;;;;5107580;27;20211;-62
2022/04/07 11:36:14;;;;;;;13.37;2.53;;;18.10;99.90;;;;;;5105576;27;20195;-61
2022/04/07 11:38:47;;;;;;;6.00;2.47;;;17.90;99.90;;;;;;5105856;28;20211;-62
2022/04/07 11:41:17;;;;;;;8.20;2.63;;;17.60;99.90;;;;;;5107811;27;20201;-62
2022/04/07 11:43:46;;;;;;;8.83;2.77;;;17.80;99.90;;;;;;5109288;27;20237;-61
2022/04/07 11:46:15;;;;;;;9.53;2.63;;;17.80;99.90;;;;;;5103871;28;20220;-62
2022/04/07 11:49:01;;;;;;;11.93;2.67;;;17.80;99.90;;;;;;5093008;28;20183;-62
2022/04/07 11:51:34;;;;;;;7.10;2.23;;;17.60;99.90;;;;;;5107052;28;20686;-62
2022/04/07 11:54:03;;;;;;;7.70;2.60;;;17.30;99.90;;;;;;5105397;27;20218;-62
2022/04/07 11:56:33;;;;;;;5.40;2.20;;;17.00;99.90;;;;;;5101815;28;20230;-61
2022/04/07 11:59:04;;;;;;;10.33;2.60;;;17.00;99.90;;;;;;5112385;27;20244;-62
2022/04/07 12:01:33;;;;;;;8.83;2.33;;;17.10;99.90;;;;;;5102008;27;20262;-61
2022/04/07 12:04:04;;;;;;;8.23;2.67;;;17.40;99.90;;;;;;5112066;27;20194;-61
2022/04/07 12:06:44;;;;;;;8.77;2.77;;;17.80;99.90;;;;;;5110125;27;20190;-61
2022/04/07 12:09:14;;;;;;;13.33;2.87;;;17.60;99.90;;;;;;5108417;27;20284;-61
2022/04/07 12:11:44;;;;;;;4.27;2.20;;;17.60;99.90;;;;;;5102838;28;20228;-61
2022/04/07 12:14:15;;;;;;;8.07;2.60;;;17.20;99.90;;;;;;5108517;27;20214;-61
2022/04/07 12:16:46;;;;;;;11.10;2.50;;;16.70;99.90;;;;;;5109941;27;20388;-61
2022/04/07 12:19:19;;;;;;;8.60;2.80;;;16.40;99.90;;;;;;5102327;27;20216;-61
2022/04/07 12:21:54;;;;;;;7.57;2.20;;;16.10;99.90;;;;;;5108445;27;20284;-62
2022/04/07 12:24:23;;;;;;;6.63;2.63;;;16.10;99.90;;;;;;5102326;28;20228;-62
2022/04/07 12:26:52;;;;;;;13.97;3.17;;;15.90;99.90;;;;;;5116464;27;20202;-61
2022/04/07 12:29:22;;;;;;;16.53;2.70;;;15.50;99.90;;;;;;5084951;28;20319;-60
2022/04/07 12:31:59;;;;;;;6.60;2.43;;;15.50;99.90;;;;;;5107634;28;20278;-60
2022/04/07 12:34:28;;;;;;;8.30;2.50;;;15.80;99.90;;;;;;5102448;28;20218;-59
2022/04/07 12:36:58;;;;;;;6.60;2.17;;;15.60;99.90;;;;;;5108975;28;20202;-59
2022/04/07 12:39:34;;;;;;;14.77;2.83;;;15.30;99.90;;;;;;5106043;28;20586;-60
2022/04/07 12:42:05;;;;;;;10.83;2.57;;;15.00;99.90;;;;;;5098131;28;20190;-63
2022/04/07 12:44:35;;;;;;;9.67;2.60;;;14.70;99.90;;;;;;5106306;28;20190;-61
2022/04/07 12:47:11;;;;;;;12.20;3.03;;;14.50;99.90;;;;;;5109254;28;20681;-60
2022/04/07 12:49:40;;;;;;;9.27;2.77;;;14.50;99.90;;;;;;5107592;28;20193;-60
2022/04/07 12:52:13;;;;;;;8.43;2.47;;;14.60;99.90;;;;;;5107169;27;20302;-60
2022/04/07 12:54:56;;;;;;;11.87;3.20;;;14.40;99.90;;;;;;5100047;28;20223;-63
2022/04/07 12:57:32;;;;;;;10.93;3.30;;;14.30;99.90;;;;;;5107347;28;20298;-61
2022/04/07 13:00:21;;;;;;;10.47;2.87;;;14.10;99.90;;;;;;5105488;28;20195;-61
2022/04/07 13:02:52;;;;;;;9.43;2.90;;;14.00;99.90;;;;;;5108482;27;20980;-61
2022/04/07 13:05:24;;;;;;;10.87;2.60;;;13.80;99.90;;;;;;5106515;28;20193;-61
2022/04/07 13:07:55;;;;;;;11.03;2.70;;;13.90;99.90;;;;;;5106834;28;20196;-61